createdAt,value
2022-07-26T00:01:20.698Z,93.92
2022-07-26T00:03:48.642Z,94.69
2022-07-26T00:06:15.267Z,94.59
2022-07-26T00:08:42.011Z,95.81
2022-07-26T00:11:08.761Z,95.70
2022-07-26T00:13:35.287Z,95.93
2022-07-26T00:16:02.546Z,96.05
2022-07-26T00:18:29.377Z,95.58
2022-07-26T00:20:55.955Z,95.41
2022-07-26T00:23:23.036Z,96.18
2022-07-26T00:25:49.728Z,95.57
2022-07-26T00:28:16.238Z,96.01
2022-07-26T00:30:42.863Z,95.39
2022-07-26T00:33:09.445Z,95.19
2022-07-26T00:35:36.024Z,94.89
2022-07-26T00:38:02.609Z,94.70
2022-07-26T00:40:30.430Z,93.99
2022-07-26T00:42:56.939Z,94.14
2022-07-26T00:45:24.039Z,94.40
2022-07-26T00:47:50.666Z,93.97
2022-07-26T00:50:18.868Z,94.31
2022-07-26T00:52:48.406Z,93.76
2022-07-26T00:55:15.661Z,94.39
2022-07-26T00:57:43.328Z,94.52
2022-07-26T01:00:14.223Z,94.99
2022-07-26T01:02:41.234Z,94.97
2022-07-26T01:05:08.585Z,94.23
2022-07-26T01:07:36.764Z,93.56
2022-07-26T01:10:07.490Z,93.75
2022-07-26T01:12:34.273Z,93.45
2022-07-26T01:15:00.849Z,94.55
2022-07-26T01:17:28.151Z,93.80
2022-07-26T01:19:54.647Z,94.81
2022-07-26T01:22:21.259Z,95.37
2022-07-26T01:24:47.803Z,93.43
2022-07-26T01:27:14.380Z,93.82
2022-07-26T01:29:41.100Z,94.71
2022-07-26T01:32:08.812Z,94.66
2022-07-26T01:34:35.503Z,95.08
2022-07-26T01:37:02.442Z,95.40
2022-07-26T01:39:29.111Z,95.45
2022-07-26T01:41:56.784Z,95.92
2022-07-26T01:44:23.856Z,95.67
2022-07-26T01:46:50.600Z,94.66
2022-07-26T01:49:17.338Z,95.25
2022-07-26T01:51:44.017Z,95.42
2022-07-26T01:54:11.654Z,94.72
2022-07-26T01:56:38.578Z,94.12
2022-07-26T01:59:05.216Z,94.56
2022-07-26T02:01:39.681Z,94.68
2022-07-26T02:04:29.971Z,94.61
2022-07-26T02:06:56.437Z,95.56
2022-07-26T02:09:22.987Z,94.73
2022-07-26T02:11:51.841Z,93.28
2022-07-26T02:14:25.484Z,93.49
2022-07-26T02:16:59.595Z,93.85
2022-07-26T02:19:29.704Z,92.85
2022-07-26T02:21:56.470Z,92.43
2022-07-26T02:24:23.604Z,92.74
2022-07-26T02:26:50.092Z,93.27
2022-07-26T02:29:16.746Z,93.42
2022-07-26T02:31:43.259Z,93.22
2022-07-26T02:34:15.984Z,93.29
2022-07-26T02:36:42.540Z,92.43
2022-07-26T02:39:09.478Z,92.09
2022-07-26T02:41:36.000Z,90.89
2022-07-26T02:44:02.586Z,91.62
2022-07-26T02:46:29.189Z,92.01
2022-07-26T02:48:57.882Z,93.03
2022-07-26T02:51:24.421Z,91.63
2022-07-26T02:53:51.006Z,92.05
2022-07-26T02:56:17.729Z,92.76
2022-07-26T02:58:44.220Z,93.52
2022-07-26T03:01:10.900Z,93.39
2022-07-26T03:03:38.271Z,92.63
2022-07-26T03:06:05.302Z,92.92
2022-07-26T03:08:31.778Z,92.85
2022-07-26T03:10:58.310Z,92.65
2022-07-26T03:13:24.773Z,92.50
2022-07-26T03:15:51.332Z,93.38
2022-07-26T03:18:17.913Z,92.80
2022-07-26T03:20:45.131Z,93.39
2022-07-26T03:23:11.710Z,93.47
2022-07-26T03:25:38.223Z,92.71
2022-07-26T03:28:05.004Z,91.48
2022-07-26T03:30:31.548Z,92.73
2022-07-26T03:32:58.021Z,92.88
2022-07-26T03:35:25.364Z,92.74
2022-07-26T03:37:52.426Z,92.05
2022-07-26T03:40:19.584Z,92.28
2022-07-26T03:42:47.427Z,92.00
2022-07-26T03:45:15.468Z,91.17
2022-07-26T03:47:42.399Z,90.90
2022-07-26T03:50:09.599Z,91.37
2022-07-26T03:52:36.114Z,90.83
2022-07-26T03:55:22.903Z,89.63
2022-07-26T03:57:49.475Z,89.36
2022-07-26T04:00:16.178Z,88.68
2022-07-26T04:02:42.783Z,88.28
2022-07-26T04:05:10.249Z,88.81
2022-07-26T04:07:52.791Z,88.58
2022-07-26T04:10:20.899Z,88.55
2022-07-26T04:12:47.457Z,87.20
2022-07-26T04:15:16.085Z,87.36
2022-07-26T04:17:43.437Z,87.23
2022-07-26T04:20:11.881Z,86.74
2022-07-26T04:22:39.702Z,86.72
2022-07-26T04:25:07.967Z,86.41
2022-07-26T04:27:34.937Z,87.15
2022-07-26T04:30:01.590Z,87.46
2022-07-26T04:32:28.454Z,87.09
2022-07-26T04:34:54.921Z,86.38
2022-07-26T04:37:21.425Z,86.78
2022-07-26T04:39:52.935Z,86.29
2022-07-26T04:42:21.403Z,86.45
2022-07-26T04:44:47.872Z,85.55
2022-07-26T04:47:14.357Z,86.20
2022-07-26T04:49:40.858Z,85.75
2022-07-26T04:52:07.473Z,86.36
2022-07-26T04:54:33.977Z,85.52
2022-07-26T04:57:00.484Z,85.72
2022-07-26T04:59:26.957Z,85.26
2022-07-26T05:01:53.493Z,84.13
2022-07-26T05:04:20.053Z,84.06
2022-07-26T05:06:46.569Z,84.63
2022-07-26T05:09:13.106Z,85.21
2022-07-26T05:11:39.659Z,84.79
2022-07-26T05:14:06.520Z,84.37
2022-07-26T05:16:33.281Z,84.84
2022-07-26T05:19:00.060Z,84.51
2022-07-26T05:21:28.002Z,84.30
2022-07-26T05:23:55.529Z,84.18
2022-07-26T05:26:22.226Z,84.52
2022-07-26T05:28:49.347Z,84.07
2022-07-26T05:31:16.278Z,82.24
2022-07-26T05:33:42.931Z,82.96
2022-07-26T05:36:09.655Z,82.91
2022-07-26T05:38:36.492Z,83.04
2022-07-26T05:41:03.067Z,82.81
2022-07-26T05:43:39.451Z,83.45
2022-07-26T05:46:09.833Z,82.20
2022-07-26T05:48:37.056Z,81.97
2022-07-26T05:51:03.711Z,82.00
2022-07-26T05:53:30.192Z,82.21
2022-07-26T05:55:56.714Z,81.62
2022-07-26T05:58:23.197Z,82.11
2022-07-26T06:00:49.730Z,82.26
2022-07-26T06:03:22.191Z,81.41
2022-07-26T06:05:49.385Z,81.66
2022-07-26T06:08:16.105Z,81.11
2022-07-26T06:10:42.629Z,80.63
2022-07-26T06:13:09.277Z,80.00
2022-07-26T06:15:37.841Z,79.96
2022-07-26T06:18:05.892Z,80.16
2022-07-26T06:20:32.817Z,80.28
2022-07-26T06:23:00.345Z,79.49
2022-07-26T06:25:27.551Z,79.32
2022-07-26T06:27:54.034Z,79.07
2022-07-26T06:30:20.527Z,78.44
2022-07-26T06:32:47.290Z,78.89
2022-07-26T06:35:15.018Z,78.41
2022-07-26T06:37:42.614Z,77.38
2022-07-26T06:40:10.539Z,77.48
2022-07-26T06:42:37.926Z,77.45
2022-07-26T06:45:05.802Z,77.33
2022-07-26T06:47:32.526Z,76.83
2022-07-26T06:49:59.054Z,76.68
2022-07-26T06:52:25.796Z,76.99
2022-07-26T06:54:52.271Z,76.46
2022-07-26T06:57:18.831Z,75.42
2022-07-26T06:59:45.286Z,76.46
2022-07-26T07:02:11.789Z,75.95
2022-07-26T07:04:38.365Z,76.83
2022-07-26T07:07:08.453Z,75.22
2022-07-26T07:09:36.010Z,75.59
2022-07-26T07:12:09.337Z,75.70
2022-07-26T07:14:37.120Z,73.58
2022-07-26T07:17:03.631Z,74.39
2022-07-26T07:19:38.034Z,73.66
2022-07-26T07:22:06.007Z,74.07
2022-07-26T07:24:32.538Z,72.77
2022-07-26T07:27:01.206Z,73.82
2022-07-26T07:29:27.910Z,73.91
2022-07-26T07:31:55.824Z,73.85
2022-07-26T07:34:23.858Z,74.17
2022-07-26T07:36:50.824Z,72.00
2022-07-26T07:39:17.888Z,71.21
2022-07-26T07:41:45.491Z,71.17
2022-07-26T07:44:12.287Z,70.46
2022-07-26T07:46:38.872Z,71.24
2022-07-26T07:49:06.890Z,71.16
2022-07-26T07:51:34.002Z,70.56
2022-07-26T07:54:05.626Z,70.46
2022-07-26T07:56:33.067Z,71.08
2022-07-26T07:58:59.641Z,70.81
2022-07-26T08:01:39.239Z,69.44
2022-07-26T08:04:07.431Z,70.51
2022-07-26T08:06:33.938Z,69.71
2022-07-26T08:09:00.504Z,69.76
2022-07-26T08:11:27.362Z,70.27
2022-07-26T08:13:56.538Z,69.67
2022-07-26T08:16:23.130Z,69.74
2022-07-26T08:18:56.990Z,69.10
2022-07-26T08:21:24.095Z,70.86
2022-07-26T08:23:52.884Z,70.84
2022-07-26T08:26:19.482Z,71.33
2022-07-26T08:28:47.872Z,71.40
2022-07-26T08:31:16.355Z,70.48
2022-07-26T08:33:45.844Z,67.52
2022-07-26T08:36:14.422Z,67.99
2022-07-26T08:38:41.844Z,68.35
2022-07-26T08:41:08.381Z,68.34
2022-07-26T08:43:51.636Z,69.79
2022-07-26T08:46:25.515Z,69.20
2022-07-26T08:48:53.167Z,70.35
2022-07-26T08:51:22.550Z,69.85
2022-07-26T08:53:50.273Z,69.33
2022-07-26T08:56:16.789Z,69.10
2022-07-26T08:58:43.837Z,68.30
2022-07-26T09:01:14.932Z,67.41
2022-07-26T09:03:43.065Z,66.69
2022-07-26T09:06:18.374Z,65.69
2022-07-26T09:08:48.480Z,65.71
2022-07-26T09:11:24.334Z,66.47
2022-07-26T09:13:58.535Z,66.07
2022-07-26T09:16:25.691Z,65.85
2022-07-26T09:18:52.659Z,64.86
2022-07-26T09:21:29.078Z,64.79
2022-07-26T09:23:56.639Z,63.75
2022-07-26T09:26:26.025Z,63.25
2022-07-26T09:29:06.229Z,62.82
2022-07-26T09:31:33.726Z,62.04
2022-07-26T09:34:00.340Z,61.93
2022-07-26T09:36:27.840Z,60.97
2022-07-26T09:39:04.200Z,62.89
2022-07-26T09:41:35.333Z,61.60
2022-07-26T09:44:07.216Z,62.53
2022-07-26T09:46:35.788Z,63.00
2022-07-26T09:49:19.671Z,63.69
2022-07-26T09:51:48.670Z,62.19
2022-07-26T09:54:31.970Z,60.21
2022-07-26T09:56:59.062Z,59.66
2022-07-26T09:59:27.624Z,59.00
2022-07-26T10:01:55.779Z,58.93
2022-07-26T10:04:22.861Z,58.69
2022-07-26T10:06:50.196Z,58.39
2022-07-26T10:09:18.622Z,58.62
2022-07-26T10:11:54.424Z,57.82
2022-07-26T10:14:33.086Z,58.89
2022-07-26T10:17:00.847Z,58.89
2022-07-26T10:19:45.800Z,58.73
2022-07-26T10:22:31.435Z,57.83
2022-07-26T10:25:17.889Z,57.23
2022-07-26T10:27:56.140Z,56.16
2022-07-26T10:30:33.563Z,57.10
2022-07-26T10:33:02.807Z,57.76
2022-07-26T10:35:41.327Z,57.52
2022-07-26T10:38:09.234Z,57.80
2022-07-26T10:40:56.299Z,61.50
2022-07-26T10:43:40.085Z,63.16
2022-07-26T10:46:16.748Z,66.33
2022-07-26T10:48:59.822Z,67.98
2022-07-26T10:51:31.728Z,69.63
2022-07-26T10:54:03.537Z,70.40
2022-07-26T10:56:33.501Z,71.17
2022-07-26T10:59:00.980Z,72.63
2022-07-26T11:01:40.644Z,73.82
2022-07-26T11:04:18.560Z,74.39
2022-07-26T11:06:45.787Z,75.28
2022-07-26T11:09:12.745Z,75.89
2022-07-26T11:11:40.101Z,75.81
2022-07-26T11:14:16.049Z,77.08
2022-07-26T11:16:47.911Z,76.47
2022-07-26T11:19:19.990Z,77.41
2022-07-26T11:21:53.788Z,78.21
2022-07-26T11:24:22.007Z,78.83
2022-07-26T11:26:48.614Z,80.84
2022-07-26T11:29:17.385Z,81.70
2022-07-26T11:31:50.560Z,81.88
2022-07-26T11:34:28.503Z,80.65
2022-07-26T11:36:57.239Z,81.91
2022-07-26T11:39:26.132Z,82.78
2022-07-26T11:42:04.934Z,81.79
2022-07-26T11:44:32.167Z,80.71
2022-07-26T11:46:59.524Z,80.93
2022-07-26T11:52:24.294Z,79.29
2022-07-26T11:54:53.232Z,80.28
2022-07-26T11:57:20.098Z,79.23
2022-07-26T11:59:50.383Z,79.35
2022-07-26T12:02:17.202Z,79.18
2022-07-26T12:04:44.846Z,80.34
2022-07-26T12:07:13.985Z,80.27
2022-07-26T12:09:43.275Z,80.72
2022-07-26T12:12:18.976Z,79.79
2022-07-26T12:14:56.657Z,79.10
2022-07-26T12:17:23.178Z,80.56
2022-07-26T12:19:49.735Z,79.41
2022-07-26T12:22:21.302Z,78.76
2022-07-26T12:24:57.850Z,79.60
2022-07-26T12:27:30.423Z,77.49
2022-07-26T12:30:17.358Z,76.09
2022-07-26T12:32:46.095Z,77.68
2022-07-26T12:35:15.578Z,76.18
2022-07-26T12:37:48.144Z,75.96
2022-07-26T12:40:22.305Z,76.70
2022-07-26T12:42:55.840Z,76.65
2022-07-26T12:45:35.475Z,77.71
2022-07-26T12:48:10.033Z,79.29
2022-07-26T12:50:36.900Z,78.10
2022-07-26T12:53:06.877Z,78.61
2022-07-26T12:55:34.455Z,77.85
2022-07-26T12:58:01.140Z,77.97
2022-07-26T13:00:29.993Z,76.70
2022-07-26T13:02:57.332Z,77.51
2022-07-26T13:05:24.079Z,76.81
2022-07-26T13:07:54.228Z,76.22
2022-07-26T13:10:36.698Z,76.97
2022-07-26T13:13:04.134Z,75.70
2022-07-26T13:15:36.174Z,76.73
2022-07-26T13:18:05.059Z,77.17
2022-07-26T13:20:31.590Z,75.22
2022-07-26T13:22:58.155Z,75.18
2022-07-26T13:25:25.439Z,73.13
2022-07-26T13:27:55.518Z,74.00
2022-07-26T13:30:24.262Z,71.75
2022-07-26T13:32:51.811Z,70.64
2022-07-26T13:35:18.345Z,70.45
2022-07-26T13:37:44.806Z,70.56
2022-07-26T13:40:11.750Z,70.21
2022-07-26T13:42:38.330Z,70.34
2022-07-26T13:45:06.579Z,70.20
2022-07-26T13:47:33.291Z,70.25
2022-07-26T13:49:59.875Z,69.69
2022-07-26T13:52:26.444Z,70.18
2022-07-26T13:54:53.162Z,70.57
2022-07-26T13:57:19.626Z,70.27
2022-07-26T13:59:46.085Z,69.89
2022-07-26T14:02:12.967Z,68.93
2022-07-26T14:04:39.657Z,69.53
2022-07-26T14:07:06.180Z,69.89
2022-07-26T14:09:32.680Z,69.97
2022-07-26T14:11:59.596Z,68.97
2022-07-26T14:14:26.134Z,68.38
2022-07-26T14:16:52.697Z,66.81
2022-07-26T14:19:19.390Z,67.95
2022-07-26T14:21:50.484Z,67.71
2022-07-26T14:24:26.354Z,68.46
2022-07-26T14:26:56.815Z,66.19
2022-07-26T14:29:25.688Z,63.32
2022-07-26T14:31:52.320Z,61.51
2022-07-26T14:34:18.903Z,61.50
2022-07-26T14:36:45.445Z,61.26
2022-07-26T14:39:12.018Z,61.62
2022-07-26T14:41:38.631Z,59.86
2022-07-26T14:44:05.445Z,60.00
2022-07-26T14:46:32.139Z,60.60
2022-07-26T14:48:58.807Z,60.42
2022-07-26T14:51:25.559Z,59.62
2022-07-26T14:53:52.705Z,59.43
2022-07-26T14:56:19.204Z,59.54
2022-07-26T14:58:45.678Z,59.11
2022-07-26T15:01:12.307Z,60.06
2022-07-26T15:03:39.116Z,59.35
2022-07-26T15:06:05.678Z,59.15
2022-07-26T15:08:32.162Z,60.59
2022-07-26T15:10:58.722Z,59.81
2022-07-26T15:13:25.254Z,58.95
2022-07-26T15:15:52.123Z,60.06
2022-07-26T15:18:18.802Z,58.83
2022-07-26T15:20:45.331Z,59.18
2022-07-26T15:23:14.912Z,59.95
2022-07-26T15:25:41.417Z,57.75
2022-07-26T15:28:08.011Z,57.37
2022-07-26T15:30:35.384Z,58.32
2022-07-26T15:33:02.129Z,57.61
2022-07-26T15:35:29.925Z,58.12
2022-07-26T15:37:56.696Z,58.18
2022-07-26T15:40:23.402Z,56.78
2022-07-26T15:42:52.094Z,56.15
2022-07-26T15:45:22.551Z,57.00
2022-07-26T15:47:56.727Z,56.73
2022-07-26T15:50:26.132Z,56.87
2022-07-26T15:52:52.768Z,56.28
2022-07-26T15:55:20.665Z,56.45
2022-07-26T15:57:47.880Z,55.70
2022-07-26T16:00:15.406Z,55.80
2022-07-26T16:02:42.331Z,56.22
2022-07-26T16:05:10.151Z,56.25
2022-07-26T16:07:37.447Z,56.21
2022-07-26T16:10:05.048Z,55.07
2022-07-26T16:12:31.578Z,56.03
2022-07-26T16:14:58.053Z,54.78
2022-07-26T16:17:25.301Z,54.74
2022-07-26T16:19:53.115Z,54.40
2022-07-26T16:22:19.710Z,54.13
2022-07-26T16:24:46.253Z,54.14
2022-07-26T16:27:12.755Z,55.12
2022-07-26T16:29:39.294Z,54.08
2022-07-26T16:32:11.178Z,55.31
2022-07-26T16:34:38.277Z,56.24
2022-07-26T16:37:05.586Z,55.19
2022-07-26T16:39:32.114Z,56.24
2022-07-26T16:42:03.223Z,55.49
2022-07-26T16:44:32.938Z,54.92
2022-07-26T16:46:59.554Z,54.00
2022-07-26T16:49:26.167Z,54.85
2022-07-26T16:51:52.788Z,54.39
2022-07-26T16:54:19.287Z,52.91
2022-07-26T16:56:45.846Z,53.19
2022-07-26T16:59:12.643Z,52.77
2022-07-26T17:01:39.388Z,52.93
2022-07-26T17:04:05.974Z,52.16
2022-07-26T17:06:32.551Z,51.78
2022-07-26T17:08:59.074Z,52.06
2022-07-26T17:11:25.626Z,52.48
2022-07-26T17:13:53.354Z,52.66
2022-07-26T17:16:21.544Z,51.86
2022-07-26T17:18:51.613Z,52.48
2022-07-26T17:21:18.111Z,51.98
2022-07-26T17:23:44.714Z,51.99
2022-07-26T17:26:11.362Z,50.22
2022-07-26T17:28:37.927Z,52.63
2022-07-26T17:31:04.427Z,51.91
2022-07-26T17:33:31.031Z,50.38
2022-07-26T17:35:58.777Z,50.56
2022-07-26T17:38:30.029Z,51.08
2022-07-26T17:40:56.766Z,51.24
2022-07-26T17:43:23.257Z,49.22
2022-07-26T17:45:50.456Z,50.56
2022-07-26T17:48:16.950Z,50.22
2022-07-26T17:50:43.463Z,50.30
2022-07-26T17:53:09.969Z,50.45
2022-07-26T17:55:36.576Z,51.53
2022-07-26T17:58:03.128Z,51.19
2022-07-26T18:00:29.871Z,51.01
2022-07-26T18:02:57.347Z,50.04
2022-07-26T18:05:29.959Z,50.92
2022-07-26T18:08:00.126Z,50.73
2022-07-26T18:10:27.614Z,51.03
2022-07-26T18:12:54.677Z,52.15
2022-07-26T18:15:21.505Z,51.23
2022-07-26T18:17:48.007Z,52.10
2022-07-26T18:20:14.538Z,52.43
2022-07-26T18:22:41.062Z,51.52
2022-07-26T18:25:07.991Z,51.86
2022-07-26T18:27:34.592Z,51.37
2022-07-26T18:30:01.238Z,52.08
2022-07-26T18:32:27.783Z,51.97
2022-07-26T18:34:55.329Z,52.37
2022-07-26T18:37:21.861Z,52.06
2022-07-26T18:39:52.815Z,51.84
2022-07-26T18:42:22.349Z,51.36
2022-07-26T18:44:49.322Z,51.71
2022-07-26T18:47:16.136Z,51.01
2022-07-26T18:49:43.926Z,50.30
2022-07-26T18:52:10.616Z,50.79
2022-07-26T18:54:37.539Z,51.17
2022-07-26T18:57:04.995Z,50.31
2022-07-26T18:59:32.273Z,51.16
2022-07-26T19:01:59.797Z,50.33
2022-07-26T19:04:26.823Z,50.73
2022-07-26T19:06:53.467Z,50.39
2022-07-26T19:09:20.236Z,50.88
2022-07-26T19:11:46.852Z,51.34
2022-07-26T19:14:14.210Z,50.54
2022-07-26T19:16:41.113Z,50.98
2022-07-26T19:19:08.264Z,50.78
2022-07-26T19:21:35.252Z,52.15
2022-07-26T19:24:01.967Z,50.71
2022-07-26T19:26:29.831Z,50.45
2022-07-26T19:28:59.423Z,51.45
2022-07-26T19:31:27.317Z,51.73
2022-07-26T19:33:55.662Z,51.06
2022-07-26T19:36:25.966Z,52.68
2022-07-26T19:38:59.309Z,55.52
2022-07-26T19:41:25.808Z,53.95
2022-07-26T19:43:52.351Z,52.88
2022-07-26T19:46:19.852Z,53.62
2022-07-26T19:48:46.818Z,53.32
2022-07-26T19:51:13.883Z,53.63
2022-07-26T19:53:45.988Z,52.51
2022-07-26T19:56:13.033Z,55.87
2022-07-26T19:58:40.175Z,54.30
2022-07-26T20:01:06.984Z,54.68
2022-07-26T20:03:34.003Z,53.48
2022-07-26T20:06:02.467Z,54.03
2022-07-26T20:08:29.578Z,55.10
2022-07-26T20:10:56.670Z,53.60
2022-07-26T20:13:23.420Z,54.85
2022-07-26T20:15:50.107Z,54.49
2022-07-26T20:18:22.107Z,54.73
2022-07-26T20:20:49.308Z,55.45
2022-07-26T20:23:16.109Z,55.44
2022-07-26T20:25:42.858Z,55.42
2022-07-26T20:28:09.684Z,55.24
2022-07-26T20:30:36.636Z,55.76
2022-07-26T20:33:03.766Z,55.50
2022-07-26T20:35:31.852Z,55.96
2022-07-26T20:37:58.452Z,56.89
2022-07-26T20:40:27.516Z,55.61
2022-07-26T20:42:54.978Z,56.37
2022-07-26T20:45:24.028Z,56.15
2022-07-26T20:47:55.172Z,55.12
2022-07-26T20:50:23.435Z,55.44
2022-07-26T20:52:50.853Z,55.39
2022-07-26T20:55:19.015Z,55.06
2022-07-26T20:57:46.927Z,55.47
2022-07-26T21:00:14.872Z,55.98
2022-07-26T21:02:41.686Z,57.08
2022-07-26T21:05:09.030Z,55.84
2022-07-26T21:07:57.149Z,56.29
2022-07-26T21:10:22.620Z,55.79
2022-07-26T21:12:49.697Z,56.62
2022-07-26T21:15:16.239Z,55.70
2022-07-26T21:17:42.872Z,56.99
2022-07-26T21:20:10.774Z,56.85
2022-07-26T21:22:37.462Z,56.34
2022-07-26T21:25:05.622Z,56.51
2022-07-26T21:27:32.092Z,57.10
2022-07-26T21:29:58.549Z,57.46
2022-07-26T21:32:28.377Z,57.47
2022-07-26T21:34:57.885Z,57.16
2022-07-26T21:37:24.511Z,57.16
2022-07-26T21:39:51.086Z,57.21
2022-07-26T21:42:17.692Z,58.45
2022-07-26T21:44:44.447Z,58.67
2022-07-26T21:47:12.096Z,57.87
2022-07-26T21:49:38.920Z,59.40
2022-07-26T21:52:12.317Z,59.46
2022-07-26T21:54:38.925Z,59.18
2022-07-26T21:57:07.424Z,59.31
2022-07-26T21:59:34.008Z,60.70
2022-07-26T22:02:00.921Z,60.12
2022-07-26T22:04:27.487Z,59.75
2022-07-26T22:06:54.132Z,60.84
2022-07-26T22:09:20.650Z,60.01
2022-07-26T22:11:47.149Z,60.62
2022-07-26T22:14:13.846Z,60.71
2022-07-26T22:16:44.136Z,60.82
2022-07-26T22:19:11.005Z,61.56
2022-07-26T22:21:37.833Z,61.33
2022-07-26T22:24:04.682Z,61.89
2022-07-26T22:26:31.330Z,61.25
2022-07-26T22:28:58.946Z,62.57
2022-07-26T22:31:25.953Z,62.68
2022-07-26T22:33:52.593Z,62.67
2022-07-26T22:36:19.281Z,62.56
2022-07-26T22:38:46.361Z,62.67
2022-07-26T22:41:12.984Z,62.94
2022-07-26T22:43:39.541Z,65.15
2022-07-26T22:46:06.077Z,65.23
2022-07-26T22:48:37.086Z,64.44
2022-07-26T22:51:04.794Z,63.43
2022-07-26T22:53:31.341Z,64.04
2022-07-26T22:55:57.886Z,63.79
2022-07-26T22:58:24.355Z,63.41
2022-07-26T23:00:50.936Z,63.90
2022-07-26T23:03:19.746Z,62.34
2022-07-26T23:05:48.018Z,63.17
2022-07-26T23:08:45.904Z,62.49
2022-07-26T23:11:02.284Z,63.84
2022-07-26T23:13:28.878Z,63.40
2022-07-26T23:16:00.489Z,65.72
2022-07-26T23:18:27.891Z,65.46
2022-07-26T23:20:54.360Z,66.50
2022-07-26T23:23:20.838Z,68.27
2022-07-26T23:25:47.566Z,67.72
2022-07-26T23:28:35.517Z,69.63
2022-07-26T23:31:03.007Z,69.04
2022-07-26T23:33:50.791Z,70.25
2022-07-26T23:36:15.990Z,70.48
2022-07-26T23:38:42.462Z,71.95
2022-07-26T23:41:09.022Z,72.01
2022-07-26T23:43:35.521Z,69.04
2022-07-26T23:46:02.084Z,68.59
2022-07-26T23:48:28.622Z,67.30
2022-07-26T23:50:55.168Z,66.40
2022-07-26T23:53:26.761Z,67.03
2022-07-26T23:55:54.001Z,66.88
2022-07-26T23:58:20.669Z,65.19
